sensor_id;sensor_type;location;lat;lon;timestamp;P1;durP1;ratioP1;P2;durP2;ratioP2
1410;SDS011;700;51.906;8.404;2024-03-17T00:03:53;5.07;;;3.60;;
1410;SDS011;700;51.906;8.404;2024-03-17T00:08:59;7.60;;;4.00;;
1410;SDS011;700;51.906;8.404;2024-03-17T00:14:03;7.50;;;4.40;;
1410;SDS011;700;51.906;8.404;2024-03-17T00:19:08;6.13;;;3.60;;
1410;SDS011;700;51.906;8.404;2024-03-17T00:24:08;8.40;;;3.83;;
1410;SDS011;700;51.906;8.404;2024-03-17T00:29:09;5.70;;;4.27;;
1410;SDS011;700;51.906;8.404;2024-03-17T00:34:14;5.60;;;3.67;;
1410;SDS011;700;51.906;8.404;2024-03-17T00:39:15;12.40;;;7.57;;
1410;SDS011;700;51.906;8.404;2024-03-17T00:44:19;8.63;;;5.70;;
1410;SDS011;700;51.906;8.404;2024-03-17T00:49:19;10.80;;;5.30;;
1410;SDS011;700;51.906;8.404;2024-03-17T00:54:22;11.67;;;5.23;;
1410;SDS011;700;51.906;8.404;2024-03-17T00:59:23;8.23;;;4.40;;
1410;SDS011;700;51.906;8.404;2024-03-17T01:04:26;6.10;;;3.80;;
1410;SDS011;700;51.906;8.404;2024-03-17T01:09:29;5.80;;;4.27;;
1410;SDS011;700;51.906;8.404;2024-03-17T01:14:31;8.33;;;4.20;;
1410;SDS011;700;51.906;8.404;2024-03-17T01:19:33;11.30;;;4.37;;
1410;SDS011;700;51.906;8.404;2024-03-17T01:24:34;7.10;;;5.30;;
1410;SDS011;700;51.906;8.404;2024-03-17T01:29:35;5.93;;;3.90;;
1410;SDS011;700;51.906;8.404;2024-03-17T01:34:36;9.60;;;4.33;;
1410;SDS011;700;51.906;8.404;2024-03-17T01:39:44;6.83;;;4.80;;
1410;SDS011;700;51.906;8.404;2024-03-17T01:44:49;6.90;;;4.40;;
1410;SDS011;700;51.906;8.404;2024-03-17T01:49:50;6.17;;;4.10;;
1410;SDS011;700;51.906;8.404;2024-03-17T01:54:56;8.73;;;4.60;;
1410;SDS011;700;51.906;8.404;2024-03-17T01:59:57;7.30;;;4.90;;
1410;SDS011;700;51.906;8.404;2024-03-17T02:05:01;8.00;;;5.10;;
1410;SDS011;700;51.906;8.404;2024-03-17T02:10:03;7.47;;;5.63;;
1410;SDS011;700;51.906;8.404;2024-03-17T02:15:05;9.93;;;5.43;;
1410;SDS011;700;51.906;8.404;2024-03-17T02:20:08;8.53;;;6.10;;
1410;SDS011;700;51.906;8.404;2024-03-17T02:25:13;10.43;;;6.23;;
1410;SDS011;700;51.906;8.404;2024-03-17T02:30:16;9.63;;;6.10;;
1410;SDS011;700;51.906;8.404;2024-03-17T02:35:22;13.70;;;5.60;;
1410;SDS011;700;51.906;8.404;2024-03-17T02:40:23;10.17;;;5.90;;
1410;SDS011;700;51.906;8.404;2024-03-17T02:45:26;10.00;;;6.37;;
1410;SDS011;700;51.906;8.404;2024-03-17T02:50:31;7.13;;;5.53;;
1410;SDS011;700;51.906;8.404;2024-03-17T02:55:32;8.80;;;5.80;;
1410;SDS011;700;51.906;8.404;2024-03-17T03:00:35;10.10;;;5.60;;
1410;SDS011;700;51.906;8.404;2024-03-17T03:05:40;8.87;;;6.07;;
1410;SDS011;700;51.906;8.404;2024-03-17T03:10:43;8.67;;;5.97;;
1410;SDS011;700;51.906;8.404;2024-03-17T03:15:46;9.10;;;6.03;;
1410;SDS011;700;51.906;8.404;2024-03-17T03:20:51;9.40;;;5.90;;
1410;SDS011;700;51.906;8.404;2024-03-17T03:25:55;7.67;;;6.00;;
1410;SDS011;700;51.906;8.404;2024-03-17T03:30:57;8.93;;;6.50;;
1410;SDS011;700;51.906;8.404;2024-03-17T03:36:06;7.93;;;5.83;;
1410;SDS011;700;51.906;8.404;2024-03-17T03:41:13;8.80;;;6.40;;
1410;SDS011;700;51.906;8.404;2024-03-17T03:46:15;14.70;;;6.20;;
1410;SDS011;700;51.906;8.404;2024-03-17T03:51:18;7.60;;;6.70;;
1410;SDS011;700;51.906;8.404;2024-03-17T03:56:20;8.37;;;5.90;;
1410;SDS011;700;51.906;8.404;2024-03-17T04:01:25;9.63;;;5.97;;
1410;SDS011;700;51.906;8.404;2024-03-17T04:06:33;8.87;;;6.47;;
1410;SDS011;700;51.906;8.404;2024-03-17T04:11:34;8.80;;;6.30;;
1410;SDS011;700;51.906;8.404;2024-03-17T04:16:35;10.80;;;6.50;;
1410;SDS011;700;51.906;8.404;2024-03-17T04:21:39;9.63;;;6.57;;
1410;SDS011;700;51.906;8.404;2024-03-17T04:26:41;8.57;;;6.03;;
1410;SDS011;700;51.906;8.404;2024-03-17T04:31:45;8.60;;;5.77;;
1410;SDS011;700;51.906;8.404;2024-03-17T04:36:48;9.07;;;6.70;;
1410;SDS011;700;51.906;8.404;2024-03-17T04:41:49;9.17;;;5.97;;
1410;SDS011;700;51.906;8.404;2024-03-17T04:46:50;9.60;;;5.77;;
1410;SDS011;700;51.906;8.404;2024-03-17T04:51:53;9.07;;;6.00;;
1410;SDS011;700;51.906;8.404;2024-03-17T04:56:54;7.20;;;5.60;;
1410;SDS011;700;51.906;8.404;2024-03-17T05:01:55;9.40;;;6.43;;
1410;SDS011;700;51.906;8.404;2024-03-17T05:06:56;9.47;;;6.90;;
1410;SDS011;700;51.906;8.404;2024-03-17T05:11:57;11.93;;;6.10;;
1410;SDS011;700;51.906;8.404;2024-03-17T05:16:57;10.43;;;5.63;;
1410;SDS011;700;51.906;8.404;2024-03-17T05:21:58;11.53;;;5.53;;
1410;SDS011;700;51.906;8.404;2024-03-17T05:26:59;11.33;;;5.87;;
1410;SDS011;700;51.906;8.404;2024-03-17T05:37:41;8.53;;;6.07;;
1410;SDS011;700;51.906;8.404;2024-03-17T05:42:44;6.40;;;4.97;;
1410;SDS011;700;51.906;8.404;2024-03-17T05:47:49;13.57;;;6.23;;
1410;SDS011;700;51.906;8.404;2024-03-17T05:52:50;9.20;;;6.27;;
1410;SDS011;700;51.906;8.404;2024-03-17T05:57:51;8.40;;;5.50;;
1410;SDS011;700;51.906;8.404;2024-03-17T06:02:56;10.97;;;6.30;;
1410;SDS011;700;51.906;8.404;2024-03-17T06:08:00;9.53;;;5.57;;
1410;SDS011;700;51.906;8.404;2024-03-17T06:13:02;10.00;;;5.07;;
1410;SDS011;700;51.906;8.404;2024-03-17T06:18:03;8.10;;;5.00;;
1410;SDS011;700;51.906;8.404;2024-03-17T06:23:05;9.83;;;5.47;;
1410;SDS011;700;51.906;8.404;2024-03-17T06:28:05;8.03;;;5.27;;
1410;SDS011;700;51.906;8.404;2024-03-17T06:33:06;5.87;;;4.60;;
1410;SDS011;700;51.906;8.404;2024-03-17T06:38:08;8.40;;;4.80;;
1410;SDS011;700;51.906;8.404;2024-03-17T06:43:12;7.27;;;5.07;;
1410;SDS011;700;51.906;8.404;2024-03-17T06:48:15;6.80;;;4.00;;
1410;SDS011;700;51.906;8.404;2024-03-17T06:53:15;8.97;;;5.37;;
1410;SDS011;700;51.906;8.404;2024-03-17T06:58:16;8.00;;;4.63;;
1410;SDS011;700;51.906;8.404;2024-03-17T07:03:19;7.50;;;5.70;;
1410;SDS011;700;51.906;8.404;2024-03-17T07:08:20;12.60;;;5.80;;
1410;SDS011;700;51.906;8.404;2024-03-17T07:13:21;7.90;;;5.93;;
1410;SDS011;700;51.906;8.404;2024-03-17T07:18:22;9.53;;;5.90;;
1410;SDS011;700;51.906;8.404;2024-03-17T07:23:24;7.50;;;6.40;;
1410;SDS011;700;51.906;8.404;2024-03-17T07:28:25;10.13;;;6.13;;
1410;SDS011;700;51.906;8.404;2024-03-17T07:33:26;10.60;;;6.53;;
1410;SDS011;700;51.906;8.404;2024-03-17T07:38:27;9.50;;;6.43;;
1410;SDS011;700;51.906;8.404;2024-03-17T07:43:32;8.50;;;6.27;;
1410;SDS011;700;51.906;8.404;2024-03-17T07:48:37;10.00;;;5.83;;
1410;SDS011;700;51.906;8.404;2024-03-17T07:53:40;12.30;;;7.43;;
1410;SDS011;700;51.906;8.404;2024-03-17T07:58:42;11.70;;;8.30;;
1410;SDS011;700;51.906;8.404;2024-03-17T08:03:47;10.03;;;6.80;;
1410;SDS011;700;51.906;8.404;2024-03-17T08:08:55;12.50;;;7.30;;
1410;SDS011;700;51.906;8.404;2024-03-17T08:13:57;9.60;;;7.03;;
1410;SDS011;700;51.906;8.404;2024-03-17T08:18:57;9.30;;;7.00;;
1410;SDS011;700;51.906;8.404;2024-03-17T08:23:58;10.17;;;7.40;;
1410;SDS011;700;51.906;8.404;2024-03-17T08:29:03;10.87;;;7.13;;
1410;SDS011;700;51.906;8.404;2024-03-17T08:34:06;9.70;;;8.17;;
1410;SDS011;700;51.906;8.404;2024-03-17T08:39:06;9.47;;;8.00;;
1410;SDS011;700;51.906;8.404;2024-03-17T08:44:14;9.40;;;7.70;;
1410;SDS011;700;51.906;8.404;2024-03-17T08:49:38;10.23;;;8.00;;
1410;SDS011;700;51.906;8.404;2024-03-17T08:54:45;12.10;;;7.57;;
1410;SDS011;700;51.906;8.404;2024-03-17T08:59:56;8.10;;;7.03;;
1410;SDS011;700;51.906;8.404;2024-03-17T09:04:59;10.90;;;7.00;;
1410;SDS011;700;51.906;8.404;2024-03-17T09:10:04;11.30;;;7.00;;
1410;SDS011;700;51.906;8.404;2024-03-17T09:15:08;8.67;;;6.37;;
1410;SDS011;700;51.906;8.404;2024-03-17T09:20:12;7.10;;;5.80;;
1410;SDS011;700;51.906;8.404;2024-03-17T09:25:14;8.80;;;6.53;;
1410;SDS011;700;51.906;8.404;2024-03-17T09:30:15;7.43;;;5.80;;
1410;SDS011;700;51.906;8.404;2024-03-17T09:35:16;9.70;;;6.10;;
1410;SDS011;700;51.906;8.404;2024-03-17T09:40:16;6.63;;;5.80;;
1410;SDS011;700;51.906;8.404;2024-03-17T09:45:19;10.30;;;7.80;;
1410;SDS011;700;51.906;8.404;2024-03-17T09:50:24;8.73;;;7.10;;
1410;SDS011;700;51.906;8.404;2024-03-17T09:55:26;7.97;;;7.27;;
1410;SDS011;700;51.906;8.404;2024-03-17T10:00:29;9.83;;;8.83;;
1410;SDS011;700;51.906;8.404;2024-03-17T10:05:31;9.20;;;8.40;;
1410;SDS011;700;51.906;8.404;2024-03-17T10:10:35;9.10;;;8.20;;
1410;SDS011;700;51.906;8.404;2024-03-17T10:15:36;10.37;;;8.93;;
1410;SDS011;700;51.906;8.404;2024-03-17T10:20:49;8.83;;;8.00;;
1410;SDS011;700;51.906;8.404;2024-03-17T10:25:56;8.33;;;7.53;;
1410;SDS011;700;51.906;8.404;2024-03-17T10:31:00;9.40;;;8.50;;
1410;SDS011;700;51.906;8.404;2024-03-17T10:36:01;9.47;;;8.50;;
1410;SDS011;700;51.906;8.404;2024-03-17T10:41:02;8.10;;;7.30;;
1410;SDS011;700;51.906;8.404;2024-03-17T10:46:06;4.53;;;4.13;;
1410;SDS011;700;51.906;8.404;2024-03-17T10:51:07;7.93;;;6.80;;
1410;SDS011;700;51.906;8.404;2024-03-17T10:56:16;8.47;;;7.67;;
1410;SDS011;700;51.906;8.404;2024-03-17T11:01:19;8.97;;;8.10;;
1410;SDS011;700;51.906;8.404;2024-03-17T11:06:21;8.87;;;8.07;;
1410;SDS011;700;51.906;8.404;2024-03-17T11:11:34;9.40;;;8.60;;
1410;SDS011;700;51.906;8.404;2024-03-17T11:16:37;9.83;;;8.93;;
1410;SDS011;700;51.906;8.404;2024-03-17T11:21:45;9.37;;;8.47;;
1410;SDS011;700;51.906;8.404;2024-03-17T11:26:49;12.93;;;10.10;;
1410;SDS011;700;51.906;8.404;2024-03-17T11:31:50;7.63;;;6.63;;
1410;SDS011;700;51.906;8.404;2024-03-17T11:36:56;11.50;;;10.30;;
1410;SDS011;700;51.906;8.404;2024-03-17T11:42:04;12.03;;;9.63;;
1410;SDS011;700;51.906;8.404;2024-03-17T11:47:10;10.23;;;8.70;;
1410;SDS011;700;51.906;8.404;2024-03-17T11:52:12;8.60;;;7.80;;
1410;SDS011;700;51.906;8.404;2024-03-17T11:57:20;9.50;;;8.57;;
1410;SDS011;700;51.906;8.404;2024-03-17T12:02:29;29.63;;;16.43;;
1410;SDS011;700;51.906;8.404;2024-03-17T12:07:31;10.60;;;9.50;;
1410;SDS011;700;51.906;8.404;2024-03-17T12:12:32;11.50;;;9.63;;
1410;SDS011;700;51.906;8.404;2024-03-17T12:17:35;9.50;;;8.50;;
1410;SDS011;700;51.906;8.404;2024-03-17T12:22:35;11.67;;;9.47;;
1410;SDS011;700;51.906;8.404;2024-03-17T12:27:37;9.40;;;8.40;;
1410;SDS011;700;51.906;8.404;2024-03-17T12:32:38;10.67;;;9.57;;
1410;SDS011;700;51.906;8.404;2024-03-17T12:37:40;9.73;;;8.80;;
1410;SDS011;700;51.906;8.404;2024-03-17T12:42:47;10.60;;;9.47;;
1410;SDS011;700;51.906;8.404;2024-03-17T12:47:50;11.03;;;8.67;;
1410;SDS011;700;51.906;8.404;2024-03-17T12:52:53;8.93;;;8.03;;
1410;SDS011;700;51.906;8.404;2024-03-17T13:03:26;9.07;;;8.17;;
1410;SDS011;700;51.906;8.404;2024-03-17T13:08:40;9.70;;;8.03;;
1410;SDS011;700;51.906;8.404;2024-03-17T13:13:43;9.27;;;8.13;;
1410;SDS011;700;51.906;8.404;2024-03-17T13:18:43;9.90;;;8.50;;
1410;SDS011;700;51.906;8.404;2024-03-17T13:23:46;10.87;;;8.20;;
1410;SDS011;700;51.906;8.404;2024-03-17T13:28:50;10.20;;;8.20;;
1410;SDS011;700;51.906;8.404;2024-03-17T13:33:50;11.33;;;8.30;;
1410;SDS011;700;51.906;8.404;2024-03-17T13:38:55;9.87;;;8.10;;
1410;SDS011;700;51.906;8.404;2024-03-17T13:43:58;8.83;;;7.73;;
1410;SDS011;700;51.906;8.404;2024-03-17T13:49:06;8.50;;;7.60;;
1410;SDS011;700;51.906;8.404;2024-03-17T13:54:13;12.53;;;9.00;;
1410;SDS011;700;51.906;8.404;2024-03-17T13:59:16;9.27;;;8.10;;
1410;SDS011;700;51.906;8.404;2024-03-17T14:04:17;10.43;;;8.20;;
1410;SDS011;700;51.906;8.404;2024-03-17T14:09:23;9.90;;;8.30;;
1410;SDS011;700;51.906;8.404;2024-03-17T14:14:23;7.87;;;7.07;;
1410;SDS011;700;51.906;8.404;2024-03-17T14:19:26;8.70;;;7.40;;
1410;SDS011;700;51.906;8.404;2024-03-17T14:24:27;10.70;;;8.73;;
1410;SDS011;700;51.906;8.404;2024-03-17T14:29:33;10.70;;;8.20;;
1410;SDS011;700;51.906;8.404;2024-03-17T14:34:34;9.10;;;7.77;;
1410;SDS011;700;51.906;8.404;2024-03-17T14:39:38;7.70;;;6.90;;
1410;SDS011;700;51.906;8.404;2024-03-17T14:44:41;9.10;;;6.93;;
1410;SDS011;700;51.906;8.404;2024-03-17T14:49:44;12.10;;;7.30;;
1410;SDS011;700;51.906;8.404;2024-03-17T14:54:47;11.50;;;8.27;;
1410;SDS011;700;51.906;8.404;2024-03-17T14:59:50;9.53;;;7.87;;
1410;SDS011;700;51.906;8.404;2024-03-17T15:04:53;10.33;;;6.80;;
1410;SDS011;700;51.906;8.404;2024-03-17T15:09:53;10.47;;;8.60;;
1410;SDS011;700;51.906;8.404;2024-03-17T15:14:58;13.40;;;7.67;;
1410;SDS011;700;51.906;8.404;2024-03-17T15:19:58;9.17;;;7.93;;
1410;SDS011;700;51.906;8.404;2024-03-17T15:25:01;9.20;;;8.20;;
1410;SDS011;700;51.906;8.404;2024-03-17T15:30:04;11.30;;;8.23;;
1410;SDS011;700;51.906;8.404;2024-03-17T15:35:08;9.47;;;7.50;;
1410;SDS011;700;51.906;8.404;2024-03-17T15:40:13;11.30;;;7.13;;
1410;SDS011;700;51.906;8.404;2024-03-17T15:45:17;11.13;;;8.40;;
1410;SDS011;700;51.906;8.404;2024-03-17T15:50:22;12.17;;;8.23;;
1410;SDS011;700;51.906;8.404;2024-03-17T15:55:25;7.93;;;7.13;;
1410;SDS011;700;51.906;8.404;2024-03-17T16:00:26;11.90;;;7.73;;
1410;SDS011;700;51.906;8.404;2024-03-17T16:05:29;12.23;;;6.97;;
1410;SDS011;700;51.906;8.404;2024-03-17T16:10:32;9.33;;;7.33;;
1410;SDS011;700;51.906;8.404;2024-03-17T16:15:33;7.97;;;7.00;;
1410;SDS011;700;51.906;8.404;2024-03-17T16:20:41;9.40;;;7.13;;
1410;SDS011;700;51.906;8.404;2024-03-17T16:25:49;8.20;;;7.20;;
1410;SDS011;700;51.906;8.404;2024-03-17T16:30:50;11.53;;;8.40;;
1410;SDS011;700;51.906;8.404;2024-03-17T16:35:50;11.33;;;7.90;;
1410;SDS011;700;51.906;8.404;2024-03-17T16:40:52;9.40;;;7.90;;
1410;SDS011;700;51.906;8.404;2024-03-17T16:46:14;12.80;;;8.87;;
1410;SDS011;700;51.906;8.404;2024-03-17T16:51:35;9.77;;;8.30;;
1410;SDS011;700;51.906;8.404;2024-03-17T16:56:36;13.47;;;8.97;;
1410;SDS011;700;51.906;8.404;2024-03-17T17:02:05;10.20;;;7.97;;
1410;SDS011;700;51.906;8.404;2024-03-17T17:07:17;11.67;;;8.37;;
1410;SDS011;700;51.906;8.404;2024-03-17T17:12:17;13.40;;;8.70;;
1410;SDS011;700;51.906;8.404;2024-03-17T17:17:18;9.33;;;7.93;;
1410;SDS011;700;51.906;8.404;2024-03-17T17:22:21;10.73;;;8.10;;
1410;SDS011;700;51.906;8.404;2024-03-17T17:27:21;12.03;;;8.50;;
1410;SDS011;700;51.906;8.404;2024-03-17T17:32:33;13.07;;;9.70;;
1410;SDS011;700;51.906;8.404;2024-03-17T17:37:36;12.13;;;9.47;;
1410;SDS011;700;51.906;8.404;2024-03-17T17:42:38;12.73;;;9.30;;
1410;SDS011;700;51.906;8.404;2024-03-17T17:47:41;11.47;;;8.87;;
1410;SDS011;700;51.906;8.404;2024-03-17T17:52:45;11.43;;;8.93;;
1410;SDS011;700;51.906;8.404;2024-03-17T17:57:45;12.83;;;8.13;;
1410;SDS011;700;51.906;8.404;2024-03-17T18:02:46;10.00;;;8.57;;
1410;SDS011;700;51.906;8.404;2024-03-17T18:07:49;11.23;;;8.40;;
1410;SDS011;700;51.906;8.404;2024-03-17T18:12:50;11.30;;;8.10;;
1410;SDS011;700;51.906;8.404;2024-03-17T18:17:50;12.60;;;9.23;;
1410;SDS011;700;51.906;8.404;2024-03-17T18:22:51;10.60;;;9.13;;
1410;SDS011;700;51.906;8.404;2024-03-17T18:27:54;14.03;;;9.83;;
1410;SDS011;700;51.906;8.404;2024-03-17T18:32:55;15.70;;;9.53;;
1410;SDS011;700;51.906;8.404;2024-03-17T18:38:00;13.40;;;9.73;;
1410;SDS011;700;51.906;8.404;2024-03-17T18:43:02;10.80;;;8.40;;
1410;SDS011;700;51.906;8.404;2024-03-17T18:48:03;14.93;;;9.57;;
1410;SDS011;700;51.906;8.404;2024-03-17T18:53:09;12.53;;;9.83;;
1410;SDS011;700;51.906;8.404;2024-03-17T18:58:12;9.80;;;8.37;;
1410;SDS011;700;51.906;8.404;2024-03-17T19:03:13;10.30;;;9.00;;
1410;SDS011;700;51.906;8.404;2024-03-17T19:08:14;11.47;;;8.97;;
1410;SDS011;700;51.906;8.404;2024-03-17T19:13:15;10.30;;;8.97;;
1410;SDS011;700;51.906;8.404;2024-03-17T19:18:16;9.70;;;8.00;;
1410;SDS011;700;51.906;8.404;2024-03-17T19:23:17;10.00;;;8.10;;
1410;SDS011;700;51.906;8.404;2024-03-17T19:28:18;11.60;;;9.23;;
1410;SDS011;700;51.906;8.404;2024-03-17T19:33:20;15.73;;;11.00;;
1410;SDS011;700;51.906;8.404;2024-03-17T19:38:24;10.10;;;8.83;;
1410;SDS011;700;51.906;8.404;2024-03-17T19:43:27;11.97;;;9.37;;
1410;SDS011;700;51.906;8.404;2024-03-17T19:48:33;9.37;;;8.07;;
1410;SDS011;700;51.906;8.404;2024-03-17T19:53:34;9.60;;;8.40;;
1410;SDS011;700;51.906;8.404;2024-03-17T19:58:38;12.43;;;9.60;;
1410;SDS011;700;51.906;8.404;2024-03-17T20:03:42;12.93;;;9.17;;
1410;SDS011;700;51.906;8.404;2024-03-17T20:08:43;13.97;;;10.17;;
1410;SDS011;700;51.906;8.404;2024-03-17T20:13:43;11.70;;;9.57;;
1410;SDS011;700;51.906;8.404;2024-03-17T20:18:45;14.50;;;9.60;;
1410;SDS011;700;51.906;8.404;2024-03-17T20:23:46;12.73;;;11.10;;
1410;SDS011;700;51.906;8.404;2024-03-17T20:28:47;16.73;;;10.87;;
1410;SDS011;700;51.906;8.404;2024-03-17T20:33:47;11.40;;;9.17;;
1410;SDS011;700;51.906;8.404;2024-03-17T20:38:50;10.33;;;7.67;;
1410;SDS011;700;51.906;8.404;2024-03-17T20:43:57;13.57;;;9.93;;
1410;SDS011;700;51.906;8.404;2024-03-17T20:49:02;11.90;;;8.90;;
1410;SDS011;700;51.906;8.404;2024-03-17T20:54:03;12.43;;;9.30;;
1410;SDS011;700;51.906;8.404;2024-03-17T20:59:05;12.63;;;9.90;;
1410;SDS011;700;51.906;8.404;2024-03-17T21:04:07;12.90;;;9.20;;
1410;SDS011;700;51.906;8.404;2024-03-17T21:09:10;14.80;;;9.67;;
1410;SDS011;700;51.906;8.404;2024-03-17T21:14:11;12.37;;;10.10;;
1410;SDS011;700;51.906;8.404;2024-03-17T21:19:11;11.10;;;9.50;;
1410;SDS011;700;51.906;8.404;2024-03-17T21:24:14;12.03;;;9.77;;
1410;SDS011;700;51.906;8.404;2024-03-17T21:29:15;13.13;;;10.10;;
1410;SDS011;700;51.906;8.404;2024-03-17T21:34:18;14.90;;;10.90;;
1410;SDS011;700;51.906;8.404;2024-03-17T21:39:23;17.03;;;10.23;;
1410;SDS011;700;51.906;8.404;2024-03-17T21:44:25;14.93;;;10.77;;
1410;SDS011;700;51.906;8.404;2024-03-17T21:49:31;24.77;;;13.37;;
1410;SDS011;700;51.906;8.404;2024-03-17T21:54:33;14.13;;;10.03;;
1410;SDS011;700;51.906;8.404;2024-03-17T21:59:38;11.63;;;9.50;;
1410;SDS011;700;51.906;8.404;2024-03-17T22:04:41;14.07;;;10.03;;
1410;SDS011;700;51.906;8.404;2024-03-17T22:09:46;13.53;;;8.80;;
1410;SDS011;700;51.906;8.404;2024-03-17T22:14:51;12.50;;;9.00;;
1410;SDS011;700;51.906;8.404;2024-03-17T22:19:56;12.00;;;8.83;;
1410;SDS011;700;51.906;8.404;2024-03-17T22:25:01;18.70;;;10.27;;
1410;SDS011;700;51.906;8.404;2024-03-17T22:30:07;15.17;;;9.90;;
1410;SDS011;700;51.906;8.404;2024-03-17T22:35:09;14.10;;;9.50;;
1410;SDS011;700;51.906;8.404;2024-03-17T22:40:10;12.37;;;8.53;;
1410;SDS011;700;51.906;8.404;2024-03-17T22:45:13;11.67;;;8.27;;
1410;SDS011;700;51.906;8.404;2024-03-17T22:50:13;10.43;;;8.10;;
1410;SDS011;700;51.906;8.404;2024-03-17T22:55:19;10.83;;;8.83;;
1410;SDS011;700;51.906;8.404;2024-03-17T23:00:20;12.03;;;8.23;;
1410;SDS011;700;51.906;8.404;2024-03-17T23:05:35;13.13;;;8.70;;
1410;SDS011;700;51.906;8.404;2024-03-17T23:10:39;11.13;;;8.47;;
1410;SDS011;700;51.906;8.404;2024-03-17T23:15:41;9.73;;;7.77;;
1410;SDS011;700;51.906;8.404;2024-03-17T23:20:45;9.17;;;7.40;;
1410;SDS011;700;51.906;8.404;2024-03-17T23:25:46;10.57;;;7.60;;
1410;SDS011;700;51.906;8.404;2024-03-17T23:30:49;11.00;;;7.70;;
1410;SDS011;700;51.906;8.404;2024-03-17T23:35:49;7.80;;;6.50;;
1410;SDS011;700;51.906;8.404;2024-03-17T23:40:51;10.10;;;7.47;;
1410;SDS011;700;51.906;8.404;2024-03-17T23:45:52;8.23;;;6.43;;
1410;SDS011;700;51.906;8.404;2024-03-17T23:50:57;12.10;;;6.77;;
1410;SDS011;700;51.906;8.404;2024-03-17T23:55:57;11.80;;;7.80;;
